sensor_id;sensor_type;location;lat;lon;timestamp;P1;durP1;ratioP1;P2;durP2;ratioP2
47758;SDS011;33520;55.122;35.582;2023-05-23T00:04:47;5.18;;;3.55;;
47758;SDS011;33520;55.122;35.582;2023-05-23T00:07:13;5.90;;;3.78;;
47758;SDS011;33520;55.122;35.582;2023-05-23T00:09:41;5.28;;;3.28;;
47758;SDS011;33520;55.122;35.582;2023-05-23T00:12:07;5.55;;;3.33;;
47758;SDS011;33520;55.122;35.582;2023-05-23T00:14:33;5.13;;;3.47;;
47758;SDS011;33520;55.122;35.582;2023-05-23T00:19:26;4.75;;;3.65;;
47758;SDS011;33520;55.122;35.582;2023-05-23T00:21:52;5.72;;;3.60;;
47758;SDS011;33520;55.122;35.582;2023-05-23T00:24:22;5.00;;;3.60;;
47758;SDS011;33520;55.122;35.582;2023-05-23T00:29:16;5.40;;;3.77;;
47758;SDS011;33520;55.122;35.582;2023-05-23T00:31:43;5.88;;;3.78;;
47758;SDS011;33520;55.122;35.582;2023-05-23T00:34:13;6.25;;;4.32;;
47758;SDS011;33520;55.122;35.582;2023-05-23T00:36:40;5.07;;;3.88;;
47758;SDS011;33520;55.122;35.582;2023-05-23T00:39:08;5.43;;;4.00;;
47758;SDS011;33520;55.122;35.582;2023-05-23T00:41:47;4.75;;;3.60;;
47758;SDS011;33520;55.122;35.582;2023-05-23T00:44:13;7.07;;;3.78;;
47758;SDS011;33520;55.122;35.582;2023-05-23T00:49:06;7.25;;;3.95;;
47758;SDS011;33520;55.122;35.582;2023-05-23T00:51:33;5.88;;;3.60;;
47758;SDS011;33520;55.122;35.582;2023-05-23T00:53:59;6.50;;;3.40;;
47758;SDS011;33520;55.122;35.582;2023-05-23T00:56:26;5.68;;;3.80;;
47758;SDS011;33520;55.122;35.582;2023-05-23T00:58:53;6.38;;;3.58;;
47758;SDS011;33520;55.122;35.582;2023-05-23T01:01:20;6.18;;;3.83;;
47758;SDS011;33520;55.122;35.582;2023-05-23T01:03:47;6.22;;;4.10;;
47758;SDS011;33520;55.122;35.582;2023-05-23T01:08:39;5.22;;;3.53;;
47758;SDS011;33520;55.122;35.582;2023-05-23T01:11:10;6.03;;;4.07;;
47758;SDS011;33520;55.122;35.582;2023-05-23T01:13:46;5.90;;;3.90;;
47758;SDS011;33520;55.122;35.582;2023-05-23T01:16:34;6.05;;;3.60;;
47758;SDS011;33520;55.122;35.582;2023-05-23T01:19:12;6.40;;;4.00;;
47758;SDS011;33520;55.122;35.582;2023-05-23T01:21:51;5.20;;;3.38;;
47758;SDS011;33520;55.122;35.582;2023-05-23T01:27:08;4.60;;;3.63;;
47758;SDS011;33520;55.122;35.582;2023-05-23T01:29:45;6.65;;;3.47;;
47758;SDS011;33520;55.122;35.582;2023-05-23T01:32:13;5.88;;;3.55;;
47758;SDS011;33520;55.122;35.582;2023-05-23T01:34:41;5.80;;;3.63;;
47758;SDS011;33520;55.122;35.582;2023-05-23T01:37:08;5.95;;;3.67;;
47758;SDS011;33520;55.122;35.582;2023-05-23T01:39:36;5.43;;;3.78;;
47758;SDS011;33520;55.122;35.582;2023-05-23T01:42:03;4.70;;;3.28;;
47758;SDS011;33520;55.122;35.582;2023-05-23T01:44:32;8.98;;;3.97;;
47758;SDS011;33520;55.122;35.582;2023-05-23T01:47:00;6.43;;;3.72;;
47758;SDS011;33520;55.122;35.582;2023-05-23T01:49:28;4.47;;;3.67;;
47758;SDS011;33520;55.122;35.582;2023-05-23T01:51:56;7.07;;;4.43;;
47758;SDS011;33520;55.122;35.582;2023-05-23T01:54:23;5.07;;;3.53;;
47758;SDS011;33520;55.122;35.582;2023-05-23T01:56:49;4.82;;;3.45;;
47758;SDS011;33520;55.122;35.582;2023-05-23T01:59:16;5.47;;;3.63;;
47758;SDS011;33520;55.122;35.582;2023-05-23T02:01:43;6.32;;;3.92;;
47758;SDS011;33520;55.122;35.582;2023-05-23T02:06:35;5.05;;;3.25;;
47758;SDS011;33520;55.122;35.582;2023-05-23T02:09:01;6.07;;;3.40;;
47758;SDS011;33520;55.122;35.582;2023-05-23T02:11:30;5.43;;;3.65;;
47758;SDS011;33520;55.122;35.582;2023-05-23T02:13:56;4.57;;;3.72;;
47758;SDS011;33520;55.122;35.582;2023-05-23T02:16:23;5.47;;;4.10;;
47758;SDS011;33520;55.122;35.582;2023-05-23T02:18:51;5.70;;;3.80;;
47758;SDS011;33520;55.122;35.582;2023-05-23T02:21:17;4.10;;;3.08;;
47758;SDS011;33520;55.122;35.582;2023-05-23T02:23:44;5.82;;;3.85;;
47758;SDS011;33520;55.122;35.582;2023-05-23T02:26:10;4.97;;;3.60;;
47758;SDS011;33520;55.122;35.582;2023-05-23T02:28:36;4.57;;;3.80;;
47758;SDS011;33520;55.122;35.582;2023-05-23T02:33:29;5.90;;;3.33;;
47758;SDS011;33520;55.122;35.582;2023-05-23T02:35:55;7.10;;;4.18;;
47758;SDS011;33520;55.122;35.582;2023-05-23T02:40:47;4.45;;;3.60;;
47758;SDS011;33520;55.122;35.582;2023-05-23T02:43:16;6.07;;;3.97;;
47758;SDS011;33520;55.122;35.582;2023-05-23T02:48:08;7.32;;;4.15;;
47758;SDS011;33520;55.122;35.582;2023-05-23T02:50:36;5.13;;;3.47;;
47758;SDS011;33520;55.122;35.582;2023-05-23T02:55:29;5.43;;;3.75;;
47758;SDS011;33520;55.122;35.582;2023-05-23T02:57:56;5.72;;;3.90;;
47758;SDS011;33520;55.122;35.582;2023-05-23T03:00:26;5.30;;;3.53;;
47758;SDS011;33520;55.122;35.582;2023-05-23T03:02:55;6.88;;;4.03;;
47758;SDS011;33520;55.122;35.582;2023-05-23T03:05:21;5.05;;;3.67;;
47758;SDS011;33520;55.122;35.582;2023-05-23T03:10:16;5.72;;;3.67;;
47758;SDS011;33520;55.122;35.582;2023-05-23T03:12:43;5.97;;;4.05;;
47758;SDS011;33520;55.122;35.582;2023-05-23T03:15:10;5.60;;;3.55;;
47758;SDS011;33520;55.122;35.582;2023-05-23T03:17:39;6.05;;;3.53;;
47758;SDS011;33520;55.122;35.582;2023-05-23T03:22:34;4.65;;;3.60;;
47758;SDS011;33520;55.122;35.582;2023-05-23T03:25:02;4.28;;;3.30;;
47758;SDS011;33520;55.122;35.582;2023-05-23T03:27:29;4.72;;;3.25;;
47758;SDS011;33520;55.122;35.582;2023-05-23T03:32:21;3.92;;;3.05;;
47758;SDS011;33520;55.122;35.582;2023-05-23T03:34:47;5.15;;;3.20;;
47758;SDS011;33520;55.122;35.582;2023-05-23T03:37:14;6.38;;;3.55;;
47758;SDS011;33520;55.122;35.582;2023-05-23T03:39:41;4.55;;;2.80;;
47758;SDS011;33520;55.122;35.582;2023-05-23T03:42:07;5.38;;;2.90;;
47758;SDS011;33520;55.122;35.582;2023-05-23T03:44:34;4.28;;;3.15;;
47758;SDS011;33520;55.122;35.582;2023-05-23T03:47:02;4.97;;;3.30;;
47758;SDS011;33520;55.122;35.582;2023-05-23T03:49:28;4.60;;;3.50;;
47758;SDS011;33520;55.122;35.582;2023-05-23T03:51:55;4.65;;;3.22;;
47758;SDS011;33520;55.122;35.582;2023-05-23T03:54:21;4.75;;;3.50;;
47758;SDS011;33520;55.122;35.582;2023-05-23T03:56:48;4.82;;;3.35;;
47758;SDS011;33520;55.122;35.582;2023-05-23T03:59:14;3.70;;;2.78;;
47758;SDS011;33520;55.122;35.582;2023-05-23T04:01:40;4.97;;;3.28;;
47758;SDS011;33520;55.122;35.582;2023-05-23T04:04:07;4.53;;;3.38;;
47758;SDS011;33520;55.122;35.582;2023-05-23T04:06:36;6.32;;;3.65;;
47758;SDS011;33520;55.122;35.582;2023-05-23T04:09:03;5.20;;;3.67;;
47758;SDS011;33520;55.122;35.582;2023-05-23T04:11:34;5.15;;;3.38;;
47758;SDS011;33520;55.122;35.582;2023-05-23T04:14:01;5.95;;;3.53;;
47758;SDS011;33520;55.122;35.582;2023-05-23T04:16:27;5.18;;;3.45;;
47758;SDS011;33520;55.122;35.582;2023-05-23T04:18:59;4.25;;;3.15;;
47758;SDS011;33520;55.122;35.582;2023-05-23T04:21:28;8.35;;;3.42;;
47758;SDS011;33520;55.122;35.582;2023-05-23T04:24:08;6.45;;;3.35;;
47758;SDS011;33520;55.122;35.582;2023-05-23T04:26:35;4.22;;;3.20;;
47758;SDS011;33520;55.122;35.582;2023-05-23T04:29:02;4.72;;;3.28;;
47758;SDS011;33520;55.122;35.582;2023-05-23T04:31:31;5.18;;;3.45;;
47758;SDS011;33520;55.122;35.582;2023-05-23T04:33:59;4.88;;;3.38;;
47758;SDS011;33520;55.122;35.582;2023-05-23T04:36:29;7.32;;;3.38;;
47758;SDS011;33520;55.122;35.582;2023-05-23T04:38:56;3.72;;;3.10;;
47758;SDS011;33520;55.122;35.582;2023-05-23T04:41:22;5.05;;;3.15;;
47758;SDS011;33520;55.122;35.582;2023-05-23T04:44:18;5.35;;;3.78;;
47758;SDS011;33520;55.122;35.582;2023-05-23T04:46:50;5.85;;;3.15;;
47758;SDS011;33520;55.122;35.582;2023-05-23T04:49:37;6.88;;;3.47;;
47758;SDS011;33520;55.122;35.582;2023-05-23T04:52:04;4.10;;;3.10;;
47758;SDS011;33520;55.122;35.582;2023-05-23T04:54:31;5.63;;;3.20;;
47758;SDS011;33520;55.122;35.582;2023-05-23T04:57:02;5.38;;;3.78;;
47758;SDS011;33520;55.122;35.582;2023-05-23T04:59:29;5.53;;;2.78;;
47758;SDS011;33520;55.122;35.582;2023-05-23T05:01:56;6.07;;;3.45;;
47758;SDS011;33520;55.122;35.582;2023-05-23T05:04:23;4.88;;;3.10;;
47758;SDS011;33520;55.122;35.582;2023-05-23T05:06:50;4.03;;;3.13;;
47758;SDS011;33520;55.122;35.582;2023-05-23T05:09:17;5.07;;;3.53;;
47758;SDS011;33520;55.122;35.582;2023-05-23T05:11:44;6.07;;;3.55;;
47758;SDS011;33520;55.122;35.582;2023-05-23T05:14:11;4.05;;;2.90;;
47758;SDS011;33520;55.122;35.582;2023-05-23T05:16:37;4.88;;;2.70;;
47758;SDS011;33520;55.122;35.582;2023-05-23T05:19:04;4.13;;;2.90;;
47758;SDS011;33520;55.122;35.582;2023-05-23T05:21:30;4.28;;;2.92;;
47758;SDS011;33520;55.122;35.582;2023-05-23T05:23:57;4.22;;;3.17;;
47758;SDS011;33520;55.122;35.582;2023-05-23T05:26:25;3.53;;;2.72;;
47758;SDS011;33520;55.122;35.582;2023-05-23T05:28:53;5.80;;;2.70;;
47758;SDS011;33520;55.122;35.582;2023-05-23T05:31:20;3.92;;;3.17;;
47758;SDS011;33520;55.122;35.582;2023-05-23T05:33:46;4.75;;;2.65;;
47758;SDS011;33520;55.122;35.582;2023-05-23T05:36:14;4.68;;;2.88;;
47758;SDS011;33520;55.122;35.582;2023-05-23T05:38:42;5.85;;;2.60;;
47758;SDS011;33520;55.122;35.582;2023-05-23T05:41:08;4.20;;;2.90;;
47758;SDS011;33520;55.122;35.582;2023-05-23T05:43:38;3.28;;;2.55;;
47758;SDS011;33520;55.122;35.582;2023-05-23T05:46:04;4.45;;;2.75;;
47758;SDS011;33520;55.122;35.582;2023-05-23T05:48:31;3.60;;;2.72;;
47758;SDS011;33520;55.122;35.582;2023-05-23T05:51:01;5.18;;;3.05;;
47758;SDS011;33520;55.122;35.582;2023-05-23T05:53:30;5.32;;;2.80;;
47758;SDS011;33520;55.122;35.582;2023-05-23T05:55:57;6.60;;;3.15;;
47758;SDS011;33520;55.122;35.582;2023-05-23T05:58:23;5.07;;;2.30;;
47758;SDS011;33520;55.122;35.582;2023-05-23T06:01:06;4.80;;;2.67;;
47758;SDS011;33520;55.122;35.582;2023-05-23T06:03:32;4.57;;;3.08;;
47758;SDS011;33520;55.122;35.582;2023-05-23T06:05:58;4.32;;;3.05;;
47758;SDS011;33520;55.122;35.582;2023-05-23T06:08:25;3.42;;;2.50;;
47758;SDS011;33520;55.122;35.582;2023-05-23T06:10:51;4.22;;;2.83;;
47758;SDS011;33520;55.122;35.582;2023-05-23T06:13:18;3.08;;;2.33;;
47758;SDS011;33520;55.122;35.582;2023-05-23T06:15:49;4.32;;;3.00;;
47758;SDS011;33520;55.122;35.582;2023-05-23T06:18:16;4.20;;;2.58;;
47758;SDS011;33520;55.122;35.582;2023-05-23T06:20:42;4.47;;;3.03;;
47758;SDS011;33520;55.122;35.582;2023-05-23T06:23:13;4.53;;;3.17;;
47758;SDS011;33520;55.122;35.582;2023-05-23T06:25:40;4.22;;;2.72;;
47758;SDS011;33520;55.122;35.582;2023-05-23T06:28:06;3.00;;;2.22;;
47758;SDS011;33520;55.122;35.582;2023-05-23T06:30:33;3.72;;;2.47;;
47758;SDS011;33520;55.122;35.582;2023-05-23T06:33:00;4.75;;;2.90;;
47758;SDS011;33520;55.122;35.582;2023-05-23T06:35:27;4.18;;;2.90;;
47758;SDS011;33520;55.122;35.582;2023-05-23T06:37:53;3.50;;;2.67;;
47758;SDS011;33520;55.122;35.582;2023-05-23T06:40:19;3.53;;;2.70;;
47758;SDS011;33520;55.122;35.582;2023-05-23T06:42:46;4.40;;;2.95;;
47758;SDS011;33520;55.122;35.582;2023-05-23T06:45:25;4.82;;;2.78;;
47758;SDS011;33520;55.122;35.582;2023-05-23T06:47:51;6.82;;;3.50;;
47758;SDS011;33520;55.122;35.582;2023-05-23T06:50:18;4.43;;;3.22;;
47758;SDS011;33520;55.122;35.582;2023-05-23T06:52:46;4.82;;;3.30;;
47758;SDS011;33520;55.122;35.582;2023-05-23T06:55:13;4.40;;;2.72;;
47758;SDS011;33520;55.122;35.582;2023-05-23T06:57:44;4.43;;;3.42;;
47758;SDS011;33520;55.122;35.582;2023-05-23T07:00:12;5.47;;;2.88;;
47758;SDS011;33520;55.122;35.582;2023-05-23T07:02:49;5.53;;;3.30;;
47758;SDS011;33520;55.122;35.582;2023-05-23T07:05:19;4.93;;;3.55;;
47758;SDS011;33520;55.122;35.582;2023-05-23T07:07:49;5.68;;;2.80;;
47758;SDS011;33520;55.122;35.582;2023-05-23T07:10:16;6.22;;;3.90;;
47758;SDS011;33520;55.122;35.582;2023-05-23T07:12:45;4.13;;;3.17;;
47758;SDS011;33520;55.122;35.582;2023-05-23T07:15:14;5.40;;;3.97;;
47758;SDS011;33520;55.122;35.582;2023-05-23T07:17:52;4.82;;;3.40;;
47758;SDS011;33520;55.122;35.582;2023-05-23T07:20:19;5.97;;;3.85;;
47758;SDS011;33520;55.122;35.582;2023-05-23T07:22:49;6.20;;;3.28;;
47758;SDS011;33520;55.122;35.582;2023-05-23T07:25:17;4.78;;;3.42;;
47758;SDS011;33520;55.122;35.582;2023-05-23T07:27:43;5.15;;;2.85;;
47758;SDS011;33520;55.122;35.582;2023-05-23T07:30:09;3.92;;;2.85;;
47758;SDS011;33520;55.122;35.582;2023-05-23T07:32:37;7.05;;;3.67;;
47758;SDS011;33520;55.122;35.582;2023-05-23T07:35:05;4.57;;;3.10;;
47758;SDS011;33520;55.122;35.582;2023-05-23T07:37:32;6.18;;;3.38;;
47758;SDS011;33520;55.122;35.582;2023-05-23T07:39:58;5.82;;;3.28;;
47758;SDS011;33520;55.122;35.582;2023-05-23T07:42:25;4.03;;;2.90;;
47758;SDS011;33520;55.122;35.582;2023-05-23T07:44:51;4.50;;;3.25;;
47758;SDS011;33520;55.122;35.582;2023-05-23T07:47:18;5.25;;;3.00;;
47758;SDS011;33520;55.122;35.582;2023-05-23T07:49:45;5.97;;;3.00;;
47758;SDS011;33520;55.122;35.582;2023-05-23T07:52:12;6.30;;;3.08;;
47758;SDS011;33520;55.122;35.582;2023-05-23T07:54:39;4.78;;;2.85;;
47758;SDS011;33520;55.122;35.582;2023-05-23T07:57:06;4.25;;;2.95;;
47758;SDS011;33520;55.122;35.582;2023-05-23T07:59:34;6.15;;;2.90;;
47758;SDS011;33520;55.122;35.582;2023-05-23T08:02:01;4.13;;;3.00;;
47758;SDS011;33520;55.122;35.582;2023-05-23T08:04:28;4.35;;;2.92;;
47758;SDS011;33520;55.122;35.582;2023-05-23T08:06:54;4.18;;;3.03;;
47758;SDS011;33520;55.122;35.582;2023-05-23T08:09:24;5.00;;;3.08;;
47758;SDS011;33520;55.122;35.582;2023-05-23T08:11:54;6.32;;;3.03;;
47758;SDS011;33520;55.122;35.582;2023-05-23T08:14:22;6.95;;;3.53;;
47758;SDS011;33520;55.122;35.582;2023-05-23T08:16:54;5.22;;;3.30;;
47758;SDS011;33520;55.122;35.582;2023-05-23T08:19:26;4.00;;;3.10;;
47758;SDS011;33520;55.122;35.582;2023-05-23T08:21:53;4.68;;;3.08;;
47758;SDS011;33520;55.122;35.582;2023-05-23T08:24:20;5.47;;;3.17;;
47758;SDS011;33520;55.122;35.582;2023-05-23T08:26:47;4.45;;;2.88;;
47758;SDS011;33520;55.122;35.582;2023-05-23T08:29:14;5.47;;;3.72;;
47758;SDS011;33520;55.122;35.582;2023-05-23T08:31:41;4.65;;;3.20;;
47758;SDS011;33520;55.122;35.582;2023-05-23T08:34:09;4.88;;;3.42;;
47758;SDS011;33520;55.122;35.582;2023-05-23T08:36:37;3.63;;;2.80;;
47758;SDS011;33520;55.122;35.582;2023-05-23T08:39:07;5.38;;;3.10;;
47758;SDS011;33520;55.122;35.582;2023-05-23T08:41:39;4.35;;;3.35;;
47758;SDS011;33520;55.122;35.582;2023-05-23T08:44:10;6.20;;;3.20;;
47758;SDS011;33520;55.122;35.582;2023-05-23T08:46:45;5.07;;;3.25;;
47758;SDS011;33520;55.122;35.582;2023-05-23T08:49:19;4.00;;;3.13;;
47758;SDS011;33520;55.122;35.582;2023-05-23T08:51:47;6.07;;;3.83;;
47758;SDS011;33520;55.122;35.582;2023-05-23T08:54:20;5.00;;;3.40;;
47758;SDS011;33520;55.122;35.582;2023-05-23T08:56:47;6.32;;;3.40;;
47758;SDS011;33520;55.122;35.582;2023-05-23T08:59:13;5.43;;;3.25;;
47758;SDS011;33520;55.122;35.582;2023-05-23T09:01:41;5.90;;;3.90;;
47758;SDS011;33520;55.122;35.582;2023-05-23T09:04:11;6.35;;;4.40;;
47758;SDS011;33520;55.122;35.582;2023-05-23T09:06:57;6.60;;;3.58;;
47758;SDS011;33520;55.122;35.582;2023-05-23T09:09:24;4.88;;;3.25;;
47758;SDS011;33520;55.122;35.582;2023-05-23T09:11:51;6.50;;;3.33;;
47758;SDS011;33520;55.122;35.582;2023-05-23T09:14:17;5.97;;;3.83;;
47758;SDS011;33520;55.122;35.582;2023-05-23T09:16:45;4.43;;;3.10;;
47758;SDS011;33520;55.122;35.582;2023-05-23T09:19:17;5.50;;;2.65;;
47758;SDS011;33520;55.122;35.582;2023-05-23T09:21:53;4.57;;;3.03;;
47758;SDS011;33520;55.122;35.582;2023-05-23T09:24:32;3.65;;;2.72;;
47758;SDS011;33520;55.122;35.582;2023-05-23T09:27:01;3.97;;;2.70;;
47758;SDS011;33520;55.122;35.582;2023-05-23T09:29:28;4.53;;;3.20;;
47758;SDS011;33520;55.122;35.582;2023-05-23T09:32:14;4.22;;;2.72;;
47758;SDS011;33520;55.122;35.582;2023-05-23T09:37:31;3.30;;;2.40;;
47758;SDS011;33520;55.122;35.582;2023-05-23T09:39:59;3.70;;;2.40;;
47758;SDS011;33520;55.122;35.582;2023-05-23T09:42:31;4.75;;;2.58;;
47758;SDS011;33520;55.122;35.582;2023-05-23T09:45:01;3.85;;;2.50;;
47758;SDS011;33520;55.122;35.582;2023-05-23T09:47:28;6.97;;;2.50;;
47758;SDS011;33520;55.122;35.582;2023-05-23T09:49:55;3.78;;;2.35;;
47758;SDS011;33520;55.122;35.582;2023-05-23T09:52:21;3.58;;;2.35;;
47758;SDS011;33520;55.122;35.582;2023-05-23T09:54:48;3.53;;;2.60;;
47758;SDS011;33520;55.122;35.582;2023-05-23T09:57:14;3.60;;;2.22;;
47758;SDS011;33520;55.122;35.582;2023-05-23T09:59:51;3.72;;;2.63;;
47758;SDS011;33520;55.122;35.582;2023-05-23T10:08:00;3.22;;;2.20;;
47758;SDS011;33520;55.122;35.582;2023-05-23T10:10:31;7.20;;;2.35;;
47758;SDS011;33520;55.122;35.582;2023-05-23T10:12:59;4.00;;;2.20;;
47758;SDS011;33520;55.122;35.582;2023-05-23T10:15:29;4.28;;;2.10;;
47758;SDS011;33520;55.122;35.582;2023-05-23T10:18:02;3.30;;;2.28;;
47758;SDS011;33520;55.122;35.582;2023-05-23T10:20:33;4.35;;;2.13;;
47758;SDS011;33520;55.122;35.582;2023-05-23T10:22:59;3.10;;;2.00;;
47758;SDS011;33520;55.122;35.582;2023-05-23T10:25:27;3.15;;;1.98;;
47758;SDS011;33520;55.122;35.582;2023-05-23T10:27:54;5.28;;;2.30;;
47758;SDS011;33520;55.122;35.582;2023-05-23T10:30:26;3.38;;;2.25;;
47758;SDS011;33520;55.122;35.582;2023-05-23T10:32:56;3.13;;;2.08;;
47758;SDS011;33520;55.122;35.582;2023-05-23T10:35:26;3.03;;;2.35;;
47758;SDS011;33520;55.122;35.582;2023-05-23T10:38:18;4.30;;;2.40;;
47758;SDS011;33520;55.122;35.582;2023-05-23T10:46:51;3.67;;;2.40;;
47758;SDS011;33520;55.122;35.582;2023-05-23T10:52:12;4.43;;;2.55;;
47758;SDS011;33520;55.122;35.582;2023-05-23T10:54:46;3.83;;;2.30;;
47758;SDS011;33520;55.122;35.582;2023-05-23T10:57:35;3.10;;;2.10;;
47758;SDS011;33520;55.122;35.582;2023-05-23T11:00:02;3.55;;;2.28;;
47758;SDS011;33520;55.122;35.582;2023-05-23T11:02:30;4.75;;;2.38;;
47758;SDS011;33520;55.122;35.582;2023-05-23T11:10:54;4.13;;;2.50;;
47758;SDS011;33520;55.122;35.582;2023-05-23T11:13:24;3.05;;;2.60;;
47758;SDS011;33520;55.122;35.582;2023-05-23T11:15:51;2.60;;;2.03;;
47758;SDS011;33520;55.122;35.582;2023-05-23T11:18:26;2.40;;;1.70;;
47758;SDS011;33520;55.122;35.582;2023-05-23T11:20:53;2.85;;;1.98;;
47758;SDS011;33520;55.122;35.582;2023-05-23T11:23:20;3.10;;;2.22;;
47758;SDS011;33520;55.122;35.582;2023-05-23T11:25:48;3.88;;;1.88;;
47758;SDS011;33520;55.122;35.582;2023-05-23T11:28:18;4.60;;;2.17;;
47758;SDS011;33520;55.122;35.582;2023-05-23T11:30:47;3.00;;;1.65;;
47758;SDS011;33520;55.122;35.582;2023-05-23T11:33:14;3.42;;;1.90;;
47758;SDS011;33520;55.122;35.582;2023-05-23T11:35:43;3.80;;;1.63;;
47758;SDS011;33520;55.122;35.582;2023-05-23T11:38:11;3.03;;;1.50;;
47758;SDS011;33520;55.122;35.582;2023-05-23T11:40:39;3.60;;;1.70;;
47758;SDS011;33520;55.122;35.582;2023-05-23T11:43:07;2.45;;;1.67;;
47758;SDS011;33520;55.122;35.582;2023-05-23T11:45:39;2.08;;;1.30;;
47758;SDS011;33520;55.122;35.582;2023-05-23T11:48:09;3.38;;;1.90;;
47758;SDS011;33520;55.122;35.582;2023-05-23T11:50:48;2.33;;;1.50;;
47758;SDS011;33520;55.122;35.582;2023-05-23T11:53:15;3.42;;;1.70;;
47758;SDS011;33520;55.122;35.582;2023-05-23T11:55:49;3.50;;;1.60;;
47758;SDS011;33520;55.122;35.582;2023-05-23T11:58:18;3.35;;;1.60;;
47758;SDS011;33520;55.122;35.582;2023-05-23T12:00:48;2.78;;;1.65;;
47758;SDS011;33520;55.122;35.582;2023-05-23T12:03:14;3.15;;;1.48;;
47758;SDS011;33520;55.122;35.582;2023-05-23T12:05:41;3.47;;;1.38;;
47758;SDS011;33520;55.122;35.582;2023-05-23T12:08:10;2.08;;;1.50;;
47758;SDS011;33520;55.122;35.582;2023-05-23T12:10:47;2.33;;;1.20;;
47758;SDS011;33520;55.122;35.582;2023-05-23T12:13:15;1.73;;;1.20;;
47758;SDS011;33520;55.122;35.582;2023-05-23T12:15:41;2.85;;;1.23;;
47758;SDS011;33520;55.122;35.582;2023-05-23T12:18:08;2.10;;;1.30;;
47758;SDS011;33520;55.122;35.582;2023-05-23T12:20:34;1.92;;;1.30;;
47758;SDS011;33520;55.122;35.582;2023-05-23T12:23:03;4.68;;;1.48;;
47758;SDS011;33520;55.122;35.582;2023-05-23T12:25:39;2.80;;;1.25;;
47758;SDS011;33520;55.122;35.582;2023-05-23T12:28:07;3.50;;;1.60;;
47758;SDS011;33520;55.122;35.582;2023-05-23T12:30:42;2.83;;;1.35;;
47758;SDS011;33520;55.122;35.582;2023-05-23T12:33:08;5.15;;;1.50;;
47758;SDS011;33520;55.122;35.582;2023-05-23T12:35:36;2.55;;;1.23;;
47758;SDS011;33520;55.122;35.582;2023-05-23T12:38:04;2.97;;;1.20;;
47758;SDS011;33520;55.122;35.582;2023-05-23T12:40:34;3.13;;;1.63;;
47758;SDS011;33520;55.122;35.582;2023-05-23T12:43:00;2.45;;;1.35;;
47758;SDS011;33520;55.122;35.582;2023-05-23T12:45:34;1.65;;;1.23;;
47758;SDS011;33520;55.122;35.582;2023-05-23T12:48:04;2.45;;;1.42;;
47758;SDS011;33520;55.122;35.582;2023-05-23T12:50:32;2.38;;;1.10;;
47758;SDS011;33520;55.122;35.582;2023-05-23T12:52:58;2.60;;;1.63;;
47758;SDS011;33520;55.122;35.582;2023-05-23T12:55:24;4.50;;;1.10;;
47758;SDS011;33520;55.122;35.582;2023-05-23T12:57:50;1.95;;;1.35;;
47758;SDS011;33520;55.122;35.582;2023-05-23T13:00:17;2.55;;;1.10;;
47758;SDS011;33520;55.122;35.582;2023-05-23T13:02:44;2.00;;;1.10;;
47758;SDS011;33520;55.122;35.582;2023-05-23T13:05:10;2.30;;;1.17;;
47758;SDS011;33520;55.122;35.582;2023-05-23T13:07:37;2.15;;;1.00;;
47758;SDS011;33520;55.122;35.582;2023-05-23T13:10:03;1.88;;;1.10;;
47758;SDS011;33520;55.122;35.582;2023-05-23T13:12:30;3.28;;;1.10;;
47758;SDS011;33520;55.122;35.582;2023-05-23T13:14:58;1.38;;;1.00;;
47758;SDS011;33520;55.122;35.582;2023-05-23T13:17:25;2.28;;;1.55;;
47758;SDS011;33520;55.122;35.582;2023-05-23T13:19:51;2.38;;;0.90;;
47758;SDS011;33520;55.122;35.582;2023-05-23T13:22:17;2.63;;;1.02;;
47758;SDS011;33520;55.122;35.582;2023-05-23T13:24:44;1.77;;;1.02;;
47758;SDS011;33520;55.122;35.582;2023-05-23T13:27:10;4.65;;;1.02;;
47758;SDS011;33520;55.122;35.582;2023-05-23T13:29:37;1.73;;;0.98;;
47758;SDS011;33520;55.122;35.582;2023-05-23T13:32:03;2.15;;;1.20;;
47758;SDS011;33520;55.122;35.582;2023-05-23T13:34:30;3.15;;;1.30;;
47758;SDS011;33520;55.122;35.582;2023-05-23T13:36:56;1.70;;;1.10;;
47758;SDS011;33520;55.122;35.582;2023-05-23T13:39:22;5.57;;;1.52;;
47758;SDS011;33520;55.122;35.582;2023-05-23T13:41:49;5.72;;;1.63;;
47758;SDS011;33520;55.122;35.582;2023-05-23T13:44:15;2.10;;;1.10;;
47758;SDS011;33520;55.122;35.582;2023-05-23T13:46:42;3.72;;;1.25;;
47758;SDS011;33520;55.122;35.582;2023-05-23T13:49:08;1.23;;;1.10;;
47758;SDS011;33520;55.122;35.582;2023-05-23T13:51:35;1.70;;;1.30;;
47758;SDS011;33520;55.122;35.582;2023-05-23T13:54:04;2.03;;;1.38;;
47758;SDS011;33520;55.122;35.582;2023-05-23T13:56:31;2.35;;;1.38;;
47758;SDS011;33520;55.122;35.582;2023-05-23T13:58:58;2.17;;;1.45;;
47758;SDS011;33520;55.122;35.582;2023-05-23T14:01:24;3.20;;;1.58;;
47758;SDS011;33520;55.122;35.582;2023-05-23T14:03:51;1.80;;;1.58;;
47758;SDS011;33520;55.122;35.582;2023-05-23T14:06:17;4.75;;;1.67;;
47758;SDS011;33520;55.122;35.582;2023-05-23T14:08:43;1.98;;;1.30;;
47758;SDS011;33520;55.122;35.582;2023-05-23T14:11:09;1.83;;;1.30;;
47758;SDS011;33520;55.122;35.582;2023-05-23T14:13:36;3.35;;;1.50;;
47758;SDS011;33520;55.122;35.582;2023-05-23T14:16:02;2.15;;;1.40;;
47758;SDS011;33520;55.122;35.582;2023-05-23T14:18:29;3.42;;;1.63;;
47758;SDS011;33520;55.122;35.582;2023-05-23T14:20:55;3.03;;;1.60;;
47758;SDS011;33520;55.122;35.582;2023-05-23T14:23:22;2.28;;;1.30;;
47758;SDS011;33520;55.122;35.582;2023-05-23T14:25:48;2.80;;;1.70;;
47758;SDS011;33520;55.122;35.582;2023-05-23T14:28:15;2.15;;;1.55;;
47758;SDS011;33520;55.122;35.582;2023-05-23T14:30:41;3.53;;;1.90;;
47758;SDS011;33520;55.122;35.582;2023-05-23T14:35:33;2.70;;;1.60;;
47758;SDS011;33520;55.122;35.582;2023-05-23T14:38:00;2.25;;;1.50;;
47758;SDS011;33520;55.122;35.582;2023-05-23T14:40:27;2.42;;;1.50;;
47758;SDS011;33520;55.122;35.582;2023-05-23T14:42:54;2.97;;;1.35;;
47758;SDS011;33520;55.122;35.582;2023-05-23T14:45:21;3.83;;;1.63;;
47758;SDS011;33520;55.122;35.582;2023-05-23T14:47:47;2.10;;;1.20;;
47758;SDS011;33520;55.122;35.582;2023-05-23T14:50:13;2.55;;;1.45;;
47758;SDS011;33520;55.122;35.582;2023-05-23T14:52:40;2.50;;;1.40;;
47758;SDS011;33520;55.122;35.582;2023-05-23T14:55:07;2.55;;;1.60;;
47758;SDS011;33520;55.122;35.582;2023-05-23T14:57:33;2.67;;;1.30;;
47758;SDS011;33520;55.122;35.582;2023-05-23T14:59:59;6.60;;;1.67;;
47758;SDS011;33520;55.122;35.582;2023-05-23T15:02:28;3.33;;;1.55;;
47758;SDS011;33520;55.122;35.582;2023-05-23T15:04:54;2.80;;;1.40;;
47758;SDS011;33520;55.122;35.582;2023-05-23T15:07:21;2.70;;;1.42;;
47758;SDS011;33520;55.122;35.582;2023-05-23T15:09:47;2.72;;;1.67;;
47758;SDS011;33520;55.122;35.582;2023-05-23T15:12:14;2.38;;;1.48;;
47758;SDS011;33520;55.122;35.582;2023-05-23T15:14:40;3.40;;;1.92;;
47758;SDS011;33520;55.122;35.582;2023-05-23T15:17:08;2.10;;;1.58;;
47758;SDS011;33520;55.122;35.582;2023-05-23T15:19:35;2.65;;;1.73;;
47758;SDS011;33520;55.122;35.582;2023-05-23T15:22:02;1.90;;;1.15;;
47758;SDS011;33520;55.122;35.582;2023-05-23T15:24:29;2.83;;;1.70;;
47758;SDS011;33520;55.122;35.582;2023-05-23T15:26:55;2.10;;;1.67;;
47758;SDS011;33520;55.122;35.582;2023-05-23T15:29:22;2.83;;;1.77;;
47758;SDS011;33520;55.122;35.582;2023-05-23T15:31:50;3.13;;;1.63;;
47758;SDS011;33520;55.122;35.582;2023-05-23T15:34:16;2.40;;;1.75;;
47758;SDS011;33520;55.122;35.582;2023-05-23T15:36:43;3.85;;;1.80;;
47758;SDS011;33520;55.122;35.582;2023-05-23T15:39:10;4.43;;;2.05;;
47758;SDS011;33520;55.122;35.582;2023-05-23T15:41:37;3.33;;;2.15;;